createdAt,value
2022-09-15T00:00:25.664Z,12.85
2022-09-15T00:02:52.081Z,14.45
2022-09-15T00:05:19.005Z,12.23
2022-09-15T00:07:45.491Z,12.60
2022-09-15T00:10:11.943Z,11.73
2022-09-15T00:12:38.478Z,20.38
2022-09-15T00:15:06.290Z,14.93
2022-09-15T00:17:32.831Z,12.57
2022-09-15T00:19:59.217Z,14.77
2022-09-15T00:22:26.159Z,17.05
2022-09-15T00:24:52.564Z,11.68
2022-09-15T00:27:18.966Z,12.23
2022-09-15T00:29:45.357Z,13.45
2022-09-15T00:32:11.734Z,11.25
2022-09-15T00:34:38.071Z,14.73
2022-09-15T00:37:04.569Z,14.50
2022-09-15T00:39:31.030Z,15.85
2022-09-15T00:41:57.397Z,15.85
2022-09-15T00:44:23.771Z,13.82
2022-09-15T00:47:09.411Z,13.93
2022-09-15T00:49:39.102Z,15.43
2022-09-15T00:52:10.879Z,16.85
2022-09-15T00:54:49.411Z,13.00
2022-09-15T00:57:19.273Z,15.32
2022-09-15T00:59:45.993Z,14.75
2022-09-15T01:02:35.694Z,19.60
2022-09-15T01:05:05.360Z,16.67
2022-09-15T01:07:37.820Z,12.95
2022-09-15T01:10:11.668Z,14.38
2022-09-15T01:12:39.291Z,14.43
2022-09-15T01:15:05.907Z,14.60
2022-09-15T01:17:36.657Z,15.43
2022-09-15T01:20:21.828Z,14.98
2022-09-15T01:23:06.964Z,16.73
2022-09-15T01:25:36.368Z,23.27
2022-09-15T01:28:21.902Z,25.52
2022-09-15T01:30:51.285Z,23.35
2022-09-15T01:33:23.144Z,30.73
2022-09-15T01:35:53.143Z,23.73
2022-09-15T01:38:32.936Z,20.73
2022-09-15T01:41:04.241Z,21.23
2022-09-15T01:43:32.460Z,25.92
2022-09-15T01:45:59.717Z,21.08
2022-09-15T01:48:27.257Z,22.23
2022-09-15T01:50:55.736Z,19.73
2022-09-15T01:53:22.832Z,16.95
2022-09-15T01:56:05.547Z,19.58
2022-09-15T01:58:32.501Z,17.02
2022-09-15T02:01:01.611Z,18.08
2022-09-15T02:03:35.070Z,18.85
2022-09-15T02:06:05.268Z,19.10
2022-09-15T02:08:36.428Z,18.38
2022-09-15T02:11:05.863Z,18.17
2022-09-15T02:13:51.878Z,18.40
2022-09-15T02:16:20.344Z,15.63
2022-09-15T02:18:56.484Z,18.67
2022-09-15T02:21:43.125Z,16.60
2022-09-15T02:24:13.004Z,18.40
2022-09-15T02:26:41.018Z,15.70
2022-09-15T02:29:09.229Z,17.80
2022-09-15T02:31:36.395Z,15.93
2022-09-15T02:34:06.692Z,14.85
2022-09-15T02:36:33.709Z,14.77
2022-09-15T02:39:03.516Z,15.20
2022-09-15T02:41:30.082Z,16.23
2022-09-15T02:43:56.445Z,15.45
2022-09-15T02:46:22.879Z,16.60
2022-09-15T02:48:49.227Z,14.23
2022-09-15T02:51:16.698Z,17.40
2022-09-15T02:53:44.494Z,17.88
2022-09-15T02:56:11.006Z,18.63
2022-09-15T02:58:37.439Z,15.82
2022-09-15T03:01:04.748Z,13.20
2022-09-15T03:03:32.092Z,13.13
2022-09-15T03:06:16.801Z,17.48
2022-09-15T03:08:44.262Z,16.05
2022-09-15T03:11:12.139Z,15.02
2022-09-15T03:13:38.848Z,15.32
2022-09-15T03:16:08.934Z,15.77
2022-09-15T03:18:35.514Z,14.57
2022-09-15T03:21:02.560Z,15.85
2022-09-15T03:23:29.148Z,16.95
2022-09-15T03:25:55.488Z,13.93
2022-09-15T03:28:21.876Z,16.05
2022-09-15T03:30:48.760Z,17.65
2022-09-15T03:33:15.104Z,16.20
2022-09-15T03:35:41.567Z,19.50
2022-09-15T03:38:08.144Z,18.63
2022-09-15T03:40:36.030Z,17.65
2022-09-15T03:43:02.364Z,16.05
2022-09-15T03:45:28.753Z,15.73
2022-09-15T03:47:55.325Z,17.63
2022-09-15T03:50:21.669Z,16.77
2022-09-15T03:52:48.476Z,15.85
2022-09-15T03:55:14.932Z,23.95
2022-09-15T03:57:41.372Z,21.20
2022-09-15T04:00:08.513Z,21.35
2022-09-15T04:02:34.858Z,23.25
2022-09-15T04:05:02.794Z,25.02
2022-09-15T04:07:29.217Z,24.60
2022-09-15T04:09:55.590Z,26.67
2022-09-15T04:12:22.087Z,24.50
2022-09-15T04:14:48.510Z,20.85
2022-09-15T04:17:16.043Z,23.00
2022-09-15T04:19:42.465Z,19.10
2022-09-15T04:22:08.888Z,22.63
2022-09-15T04:24:35.605Z,19.77
2022-09-15T04:27:02.044Z,22.40
2022-09-15T04:29:28.380Z,23.23
2022-09-15T04:31:54.817Z,23.60
2022-09-15T04:34:21.233Z,21.58
2022-09-15T04:36:47.634Z,23.33
2022-09-15T04:39:14.060Z,27.42
2022-09-15T04:41:41.617Z,23.90
2022-09-15T04:44:08.022Z,24.23
2022-09-15T04:46:34.460Z,26.25
2022-09-15T04:49:01.002Z,26.75
2022-09-15T04:51:27.437Z,27.25
2022-09-15T04:53:54.145Z,26.02
2022-09-15T04:56:21.935Z,22.55
2022-09-15T04:58:52.569Z,27.35
2022-09-15T05:01:20.447Z,23.63
2022-09-15T05:03:47.170Z,23.73
2022-09-15T05:06:15.193Z,24.85
2022-09-15T05:08:41.603Z,24.52
2022-09-15T05:11:11.762Z,26.25
2022-09-15T05:13:38.684Z,23.15
2022-09-15T05:16:06.201Z,22.40
2022-09-15T05:18:33.102Z,22.33
2022-09-15T05:21:00.372Z,22.80
2022-09-15T05:23:27.140Z,21.17
2022-09-15T05:25:57.524Z,22.52
2022-09-15T05:28:24.749Z,19.40
2022-09-15T05:30:52.274Z,21.42
2022-09-15T05:33:19.685Z,23.52
2022-09-15T05:35:56.613Z,22.90
2022-09-15T05:38:23.490Z,21.50
2022-09-15T05:40:49.940Z,20.45
2022-09-15T05:43:16.657Z,18.33
2022-09-15T05:45:43.045Z,16.75
2022-09-15T05:48:10.060Z,19.63
2022-09-15T05:50:36.990Z,16.77
2022-09-15T05:53:03.406Z,15.75
2022-09-15T05:55:29.801Z,17.75
2022-09-15T05:57:56.454Z,17.05
2022-09-15T06:00:23.830Z,16.10
2022-09-15T06:02:50.270Z,15.82
2022-09-15T06:05:16.800Z,16.50
2022-09-15T06:07:43.276Z,12.95
2022-09-15T06:10:09.876Z,11.88
2022-09-15T06:12:36.236Z,13.15
2022-09-15T06:15:02.633Z,11.10
2022-09-15T06:17:31.405Z,13.52
2022-09-15T06:19:57.995Z,12.77
2022-09-15T06:22:24.432Z,14.40
2022-09-15T06:24:52.234Z,14.07
2022-09-15T06:27:19.622Z,13.55
2022-09-15T06:29:45.953Z,14.48
2022-09-15T06:32:12.387Z,12.32
2022-09-15T06:34:38.837Z,12.52
2022-09-15T06:37:05.292Z,12.52
2022-09-15T06:39:31.594Z,11.45
2022-09-15T06:42:02.824Z,11.65
2022-09-15T06:46:57.627Z,13.60
2022-09-15T06:49:25.028Z,12.75
2022-09-15T06:51:51.337Z,8.93
2022-09-15T06:54:17.967Z,14.63
2022-09-15T06:56:44.525Z,10.05
2022-09-15T06:59:11.501Z,10.88
2022-09-15T07:01:38.148Z,12.90
2022-09-15T07:04:05.787Z,12.93
2022-09-15T07:06:32.884Z,10.05
2022-09-15T07:08:59.276Z,8.00
2022-09-15T07:11:26.032Z,11.60
2022-09-15T07:13:52.611Z,9.73
2022-09-15T07:16:19.497Z,11.20
2022-09-15T07:18:46.255Z,5.97
2022-09-15T07:21:13.974Z,6.75
2022-09-15T07:23:40.606Z,7.63
2022-09-15T07:26:07.326Z,8.68
2022-09-15T07:28:33.665Z,8.43
2022-09-15T07:31:00.113Z,9.90
2022-09-15T07:33:26.443Z,8.30
2022-09-15T07:35:52.801Z,10.98
2022-09-15T07:38:21.218Z,9.35
2022-09-15T07:40:49.005Z,5.93
2022-09-15T07:43:15.634Z,11.80
2022-09-15T07:45:42.470Z,9.55
2022-09-15T07:48:08.813Z,12.45
2022-09-15T07:50:35.120Z,6.35
2022-09-15T07:53:01.780Z,8.77
2022-09-15T07:55:28.204Z,7.10
2022-09-15T07:57:58.616Z,6.85
2022-09-15T08:00:25.274Z,5.80
2022-09-15T08:02:51.607Z,10.70
2022-09-15T08:05:18.074Z,8.50
2022-09-15T08:07:44.401Z,9.52
2022-09-15T08:10:10.961Z,7.97
2022-09-15T08:12:37.342Z,21.58
2022-09-15T08:15:04.640Z,13.57
2022-09-15T08:17:30.956Z,22.15
2022-09-15T08:19:57.305Z,36.63
2022-09-15T08:22:23.704Z,25.08
2022-09-15T08:24:50.355Z,29.23
2022-09-15T08:27:16.660Z,23.52
2022-09-15T08:29:43.291Z,17.90
2022-09-15T08:32:12.419Z,12.82
2022-09-15T08:34:38.783Z,21.48
2022-09-15T08:37:05.409Z,25.88
2022-09-15T08:39:31.729Z,18.00
2022-09-15T08:42:00.308Z,12.88
2022-09-15T08:44:45.358Z,22.23
2022-09-15T08:47:14.828Z,17.17
2022-09-15T08:49:53.615Z,26.95
2022-09-15T08:52:22.580Z,11.95
2022-09-15T08:54:50.696Z,9.60
2022-09-15T08:57:18.941Z,5.40
2022-09-15T08:59:45.296Z,6.05
2022-09-15T09:02:11.594Z,6.25
2022-09-15T09:04:57.825Z,7.97
2022-09-15T09:07:30.214Z,6.88
2022-09-15T09:12:23.537Z,10.82
2022-09-15T09:14:53.080Z,5.20
2022-09-15T09:17:28.738Z,7.07
2022-09-15T09:20:00.944Z,6.68
2022-09-15T09:22:31.814Z,11.98
2022-09-15T09:24:59.730Z,9.10
2022-09-15T09:27:30.624Z,7.70
2022-09-15T09:30:12.380Z,6.53
2022-09-15T09:32:43.680Z,13.90
2022-09-15T09:35:20.064Z,7.25
2022-09-15T09:37:46.442Z,6.50
2022-09-15T09:40:16.144Z,9.93
2022-09-15T09:42:43.402Z,7.43
2022-09-15T09:45:14.104Z,8.40
2022-09-15T09:47:41.024Z,4.53
2022-09-15T09:50:26.282Z,7.68
2022-09-15T09:52:52.821Z,6.38
2022-09-15T09:55:19.238Z,7.28
2022-09-15T09:57:45.538Z,9.80
2022-09-15T10:00:30.525Z,8.52
2022-09-15T10:02:56.860Z,4.63
2022-09-15T10:05:23.437Z,6.20
2022-09-15T10:07:49.815Z,6.82
2022-09-15T10:10:23.654Z,6.07
2022-09-15T10:12:50.704Z,8.38
2022-09-15T10:15:22.182Z,6.95
2022-09-15T10:17:49.733Z,6.60
2022-09-15T10:20:32.207Z,14.05
2022-09-15T10:23:06.453Z,6.80
2022-09-15T10:25:55.083Z,15.25
2022-09-15T10:28:23.664Z,7.28
2022-09-15T10:31:13.351Z,7.13
2022-09-15T10:33:44.838Z,6.55
2022-09-15T10:36:18.702Z,10.02
2022-09-15T10:38:46.180Z,9.60
2022-09-15T10:41:34.902Z,4.45
2022-09-15T10:44:10.784Z,4.88
2022-09-15T10:46:56.388Z,6.07
2022-09-15T10:49:22.677Z,6.97
2022-09-15T10:51:58.237Z,4.63
2022-09-15T10:54:48.576Z,7.13
2022-09-15T11:00:06.046Z,8.23
2022-09-15T11:02:50.925Z,7.15
2022-09-15T11:05:39.149Z,7.95
2022-09-15T11:08:30.960Z,5.82
2022-09-15T11:11:30.608Z,3.95
2022-09-15T11:14:07.926Z,2.97
2022-09-15T11:16:38.707Z,4.25
2022-09-15T11:19:22.528Z,6.70
2022-09-15T11:21:57.786Z,4.97
2022-09-15T11:24:27.394Z,5.47
2022-09-15T11:27:00.989Z,5.03
2022-09-15T11:29:30.366Z,6.63
2022-09-15T11:32:00.509Z,4.50
2022-09-15T11:34:30.426Z,7.32
2022-09-15T11:37:01.028Z,4.32
2022-09-15T11:39:31.045Z,4.53
2022-09-15T11:42:06.364Z,7.07
2022-09-15T11:44:33.716Z,4.80
2022-09-15T11:47:18.987Z,5.13
2022-09-15T11:49:48.617Z,6.97
2022-09-15T11:52:22.419Z,4.13
2022-09-15T11:54:51.665Z,5.25
2022-09-15T11:57:24.780Z,4.22
2022-09-15T11:59:54.687Z,4.43
2022-09-15T12:02:38.549Z,4.05
2022-09-15T12:05:11.156Z,7.20
2022-09-15T12:07:43.220Z,6.20
2022-09-15T12:10:14.205Z,5.65
2022-09-15T12:12:41.888Z,7.22
2022-09-15T12:15:13.270Z,4.63
2022-09-15T12:17:54.078Z,7.25
2022-09-15T12:20:30.229Z,4.53
2022-09-15T12:23:12.013Z,6.70
2022-09-15T12:25:45.884Z,3.47
2022-09-15T12:28:21.480Z,4.35
2022-09-15T12:30:48.336Z,4.68
2022-09-15T12:33:33.493Z,5.28
2022-09-15T12:36:19.760Z,4.38
2022-09-15T12:38:49.404Z,5.93
2022-09-15T12:41:18.816Z,3.90
2022-09-15T12:43:53.201Z,7.18
2022-09-15T12:46:19.665Z,4.07
2022-09-15T12:48:47.527Z,3.60
2022-09-15T12:51:22.422Z,5.50
2022-09-15T12:54:04.492Z,6.15
2022-09-15T12:56:32.353Z,3.22
2022-09-15T12:59:06.769Z,6.65
2022-09-15T13:01:45.376Z,8.13
2022-09-15T13:04:12.937Z,6.40
2022-09-15T13:06:39.254Z,2.65
2022-09-15T13:09:05.667Z,9.75
2022-09-15T13:11:37.398Z,5.82
2022-09-15T13:14:04.134Z,5.95
2022-09-15T13:17:02.992Z,3.80
2022-09-15T13:19:41.199Z,5.00
2022-09-15T13:22:23.696Z,4.50
2022-09-15T13:25:19.356Z,5.75
2022-09-15T13:27:53.136Z,7.20
2022-09-15T13:30:31.083Z,4.07
2022-09-15T13:33:03.362Z,7.38
2022-09-15T13:38:20.551Z,3.50
2022-09-15T13:40:57.966Z,2.30
2022-09-15T13:43:30.552Z,4.53
2022-09-15T13:46:03.999Z,9.02
2022-09-15T13:48:49.887Z,9.43
2022-09-15T13:51:24.252Z,5.43
2022-09-15T13:53:56.965Z,3.17
2022-09-15T13:56:31.983Z,6.07
2022-09-15T13:59:08.997Z,1.60
2022-09-15T14:01:39.094Z,9.13
2022-09-15T14:04:09.398Z,5.28
2022-09-15T14:06:37.639Z,2.55
2022-09-15T14:09:14.958Z,5.95
2022-09-15T14:11:42.146Z,3.42
2022-09-15T14:14:11.096Z,6.63
2022-09-15T14:16:38.936Z,4.40
2022-09-15T14:19:24.349Z,2.95
2022-09-15T14:21:53.798Z,5.85
2022-09-15T14:24:26.248Z,3.08
2022-09-15T14:26:52.729Z,2.05
2022-09-15T14:29:20.441Z,2.05
2022-09-15T14:31:47.589Z,2.38
2022-09-15T14:34:21.321Z,2.25
2022-09-15T14:36:55.937Z,3.35
2022-09-15T14:39:22.644Z,3.80
2022-09-15T14:41:50.001Z,6.20
2022-09-15T14:45:53.828Z,10.52
2022-09-15T14:47:13.761Z,8.00
2022-09-15T14:49:40.274Z,2.05
2022-09-15T14:52:15.985Z,3.38
2022-09-15T14:54:42.430Z,3.30
2022-09-15T14:57:09.181Z,2.00
2022-09-15T14:59:44.283Z,5.63
2022-09-15T15:02:19.691Z,3.45
2022-09-15T15:04:50.229Z,4.25
2022-09-15T15:07:22.705Z,5.88
2022-09-15T15:12:44.693Z,1.95
2022-09-15T15:15:12.358Z,7.00
2022-09-15T15:17:47.753Z,3.33
2022-09-15T15:20:15.957Z,4.93
2022-09-15T15:22:43.214Z,5.18
2022-09-15T15:25:29.273Z,6.93
2022-09-15T15:28:01.713Z,4.28
2022-09-15T15:30:29.672Z,5.47
2022-09-15T15:32:57.609Z,3.35
2022-09-15T15:35:24.517Z,3.95
2022-09-15T15:38:02.080Z,7.15
2022-09-15T15:40:28.817Z,5.35
2022-09-15T15:42:59.409Z,5.63
2022-09-15T15:45:28.019Z,4.53
2022-09-15T15:47:54.383Z,4.03
2022-09-15T15:50:22.798Z,6.80
2022-09-15T15:52:49.494Z,7.35
2022-09-15T15:55:17.021Z,3.90
2022-09-15T15:57:43.576Z,8.73
2022-09-15T16:00:24.316Z,5.43
2022-09-15T16:02:51.041Z,6.90
2022-09-15T16:05:18.110Z,8.77
2022-09-15T16:07:45.857Z,4.20
2022-09-15T16:10:18.504Z,7.82
2022-09-15T16:12:44.898Z,12.90
2022-09-15T16:15:29.363Z,6.75
2022-09-15T16:17:55.778Z,6.75
2022-09-15T16:20:24.986Z,10.20
2022-09-15T16:22:51.838Z,7.45
2022-09-15T16:25:21.409Z,8.77
2022-09-15T16:27:47.798Z,7.50
2022-09-15T16:30:14.346Z,8.30
2022-09-15T16:32:41.236Z,13.05
2022-09-15T16:35:21.099Z,7.88
2022-09-15T16:37:47.496Z,8.25
2022-09-15T16:40:14.020Z,5.30
2022-09-15T16:42:40.460Z,5.35
2022-09-15T16:45:18.679Z,5.90
2022-09-15T16:47:45.101Z,6.00
2022-09-15T16:50:11.737Z,6.78
2022-09-15T16:52:38.193Z,9.30
2022-09-15T16:55:16.743Z,6.88
2022-09-15T16:57:43.253Z,8.15
2022-09-15T17:00:09.961Z,8.32
2022-09-15T17:02:36.298Z,5.40
2022-09-15T17:05:02.761Z,9.05
2022-09-15T17:07:29.265Z,6.78
2022-09-15T17:09:55.621Z,5.68
2022-09-15T17:12:22.175Z,6.22
2022-09-15T17:14:48.566Z,7.32
2022-09-15T17:17:24.544Z,6.05
2022-09-15T17:19:50.874Z,9.23
2022-09-15T17:22:17.354Z,13.43
2022-09-15T17:24:43.776Z,7.00
2022-09-15T17:27:10.133Z,5.28
2022-09-15T17:29:36.432Z,10.48
2022-09-15T17:32:02.804Z,4.15
2022-09-15T17:34:29.117Z,8.38
2022-09-15T17:36:55.425Z,7.07
2022-09-15T17:39:21.726Z,7.32
2022-09-15T17:41:48.033Z,9.25
2022-09-15T17:44:14.392Z,3.53
2022-09-15T17:46:40.747Z,11.38
2022-09-15T17:49:07.165Z,10.45
2022-09-15T17:51:33.544Z,4.90
2022-09-15T17:53:59.873Z,5.95
2022-09-15T17:56:26.185Z,3.45
2022-09-15T17:58:52.505Z,10.55
2022-09-15T18:01:18.854Z,5.78
2022-09-15T18:03:45.450Z,2.38
2022-09-15T18:06:11.818Z,4.90
2022-09-15T18:08:38.237Z,4.90
2022-09-15T18:11:05.363Z,5.30
2022-09-15T18:13:31.874Z,5.55
2022-09-15T18:16:02.623Z,2.90
2022-09-15T18:18:29.154Z,6.05
2022-09-15T18:20:56.675Z,9.70
2022-09-15T18:23:23.954Z,3.53
2022-09-15T18:25:50.651Z,3.85
2022-09-15T18:28:17.613Z,4.07
2022-09-15T18:30:45.080Z,3.65
2022-09-15T18:33:21.852Z,3.33
2022-09-15T18:35:49.080Z,2.85
2022-09-15T18:38:15.734Z,4.03
2022-09-15T18:40:49.433Z,1.58
2022-09-15T18:43:16.521Z,4.18
2022-09-15T18:45:44.297Z,2.80
2022-09-15T18:48:12.972Z,3.30
2022-09-15T18:50:40.197Z,2.67
2022-09-15T18:53:06.684Z,1.88
2022-09-15T18:55:33.076Z,9.00
2022-09-15T18:58:01.104Z,3.58
2022-09-15T19:00:28.598Z,2.60
2022-09-15T19:02:59.257Z,1.65
2022-09-15T19:05:26.692Z,4.35
2022-09-15T19:07:53.048Z,4.57
2022-09-15T19:10:19.743Z,1.75
2022-09-15T19:12:46.055Z,8.90
2022-09-15T19:15:13.055Z,2.75
2022-09-15T19:17:39.854Z,2.83
2022-09-15T19:20:07.441Z,4.15
2022-09-15T19:22:34.298Z,3.17
2022-09-15T19:25:00.654Z,6.03
2022-09-15T19:27:26.981Z,2.20
2022-09-15T19:29:53.364Z,1.80
2022-09-15T19:32:20.861Z,3.88
2022-09-15T19:34:47.475Z,4.50
2022-09-15T19:37:18.459Z,4.22
2022-09-15T19:39:45.713Z,3.08
2022-09-15T19:42:12.388Z,1.52
2022-09-15T19:44:38.933Z,2.63
2022-09-15T19:47:05.399Z,4.93
2022-09-15T19:49:32.390Z,2.78
2022-09-15T19:52:00.058Z,3.08
2022-09-15T19:54:27.254Z,1.60
2022-09-15T19:56:54.093Z,2.72
2022-09-15T19:59:20.690Z,5.63
2022-09-15T20:01:47.521Z,1.75
2022-09-15T20:04:13.985Z,4.43
2022-09-15T20:06:40.804Z,1.73
2022-09-15T20:09:07.607Z,3.25
2022-09-15T20:11:34.585Z,1.67
2022-09-15T20:14:01.241Z,2.65
2022-09-15T20:16:27.908Z,1.48
2022-09-15T20:18:54.808Z,1.45
2022-09-15T20:21:50.199Z,3.30
2022-09-15T20:24:17.025Z,8.80
2022-09-15T20:26:43.397Z,3.75
2022-09-15T20:29:10.152Z,4.63
2022-09-15T20:31:36.472Z,4.38
2022-09-15T20:34:02.845Z,1.70
2022-09-15T20:36:33.056Z,2.83
2022-09-15T20:39:00.160Z,2.53
2022-09-15T20:41:27.425Z,4.13
2022-09-15T20:43:53.850Z,1.23
2022-09-15T20:46:21.689Z,3.88
2022-09-15T20:48:48.313Z,1.92
2022-09-15T20:51:25.529Z,1.30
2022-09-15T20:53:52.997Z,2.58
2022-09-15T20:56:24.625Z,5.80
2022-09-15T20:58:51.402Z,3.38
2022-09-15T21:01:19.868Z,2.95
2022-09-15T21:03:47.701Z,5.72
2022-09-15T21:06:18.040Z,3.58
2022-09-15T21:08:45.238Z,2.88
2022-09-15T21:11:11.684Z,8.30
2022-09-15T21:13:40.025Z,5.32
2022-09-15T21:16:08.101Z,5.82
2022-09-15T21:18:39.036Z,3.15
2022-09-15T21:21:07.744Z,4.22
2022-09-15T21:23:42.418Z,4.28
2022-09-15T21:26:09.913Z,2.65
2022-09-15T21:28:36.570Z,2.80
2022-09-15T21:31:26.328Z,5.13
2022-09-15T21:33:53.301Z,2.80
2022-09-15T21:36:22.286Z,2.53
2022-09-15T21:38:49.406Z,3.17
2022-09-15T21:41:16.833Z,4.78
2022-09-15T21:43:46.446Z,4.70
2022-09-15T21:46:14.669Z,2.95
2022-09-15T21:48:41.265Z,4.55
2022-09-15T21:51:08.893Z,7.68
2022-09-15T21:53:35.328Z,5.60
2022-09-15T21:56:02.591Z,3.55
2022-09-15T21:58:39.003Z,5.95
2022-09-15T22:01:11.518Z,3.05
2022-09-15T22:03:41.996Z,4.07
2022-09-15T22:06:12.217Z,5.50
2022-09-15T22:08:39.224Z,4.85
2022-09-15T22:11:06.274Z,4.80
2022-09-15T22:13:39.483Z,8.40
2022-09-15T22:16:07.661Z,4.75
2022-09-15T22:18:37.942Z,4.18
2022-09-15T22:21:04.327Z,3.13
2022-09-15T22:23:31.096Z,14.88
2022-09-15T22:26:05.439Z,3.88
2022-09-15T22:28:32.231Z,3.83
2022-09-15T22:30:59.611Z,4.65
2022-09-15T22:33:26.549Z,4.35
2022-09-15T22:35:53.008Z,6.13
2022-09-15T22:38:19.499Z,4.43
2022-09-15T22:40:45.901Z,4.38
2022-09-15T22:43:12.410Z,2.67
2022-09-15T22:45:38.878Z,4.28
2022-09-15T22:48:05.247Z,6.57
2022-09-15T22:50:31.741Z,4.82
2022-09-15T22:52:58.116Z,6.28
2022-09-15T22:55:25.472Z,8.07
2022-09-15T22:57:51.959Z,4.20
2022-09-15T23:00:20.109Z,6.28
2022-09-15T23:02:46.966Z,5.03
2022-09-15T23:05:13.357Z,6.40
2022-09-15T23:07:39.662Z,2.38
2022-09-15T23:10:06.254Z,4.93
2022-09-15T23:12:32.830Z,5.97
2022-09-15T23:15:03.767Z,3.63
2022-09-15T23:17:30.762Z,3.83
2022-09-15T23:19:57.374Z,7.82
2022-09-15T23:22:23.805Z,4.95
2022-09-15T23:24:50.142Z,3.83
2022-09-15T23:27:16.453Z,3.60
2022-09-15T23:29:43.863Z,5.43
2022-09-15T23:32:10.237Z,7.10
2022-09-15T23:34:37.598Z,4.75
2022-09-15T23:37:03.986Z,5.85
2022-09-15T23:39:30.321Z,4.70
2022-09-15T23:41:56.875Z,3.53
2022-09-15T23:44:24.238Z,5.20
2022-09-15T23:46:50.691Z,6.45
2022-09-15T23:49:18.810Z,6.78
2022-09-15T23:51:45.378Z,4.65
2022-09-15T23:54:11.799Z,5.18
2022-09-15T23:56:38.298Z,4.82
2022-09-15T23:59:04.693Z,4.97
